Time;durP1;ratioP1;P1;durP2;ratioP2;P2;SDS_P1;SDS_P2;PMS_P1;PMS_P2;Temp;Humidity;BMP_temperature;BMP_pressure;BME280_temperature;BME280_humidity;BME280_pressure;Samples;Min_cycle;Max_cycle;Signal;HPM_P1;HPM_P2
2023/05/08 00:02:11;;;;;;;0.80;0.80;;;;;;;-1.08;66.57;100670.31;6303992;22;20023;-80
2023/05/08 00:04:38;;;;;;;0.70;0.70;;;;;;;-1.14;66.53;100666.34;6276844;22;20038;-80
2023/05/08 00:07:06;;;;;;;0.70;0.70;;;;;;;-1.18;66.53;100659.63;6303701;22;20399;-80
2023/05/08 00:09:33;;;;;;;0.70;0.70;;;;;;;-1.18;66.80;100673.72;6304249;22;20047;-80
2023/05/08 00:12:00;;;;;;;0.80;0.80;;;;;;;-1.09;66.50;100664.16;6303899;22;20058;-80
2023/05/08 00:14:29;;;;;;;0.55;0.55;;;;;;;-1.07;66.57;100670.16;6303777;22;20068;-80
2023/05/08 00:16:56;;;;;;;0.80;0.80;;;;;;;-1.04;66.52;100675.19;6276520;22;20028;-80
2023/05/08 00:19:26;;;;;;;0.50;0.50;;;;;;;-1.05;66.68;100680.66;6252217;22;20042;-81
2023/05/08 00:21:53;;;;;;;0.60;0.60;;;;;;;-1.12;66.50;100681.16;6253281;22;20033;-81
2023/05/08 00:24:20;;;;;;;0.68;0.68;;;;;;;-1.14;66.59;100674.28;6278829;22;20072;-80
2023/05/08 00:26:48;;;;;;;0.73;0.73;;;;;;;-1.12;66.79;100682.97;6306037;22;20026;-81
2023/05/08 00:29:15;;;;;;;0.70;0.70;;;;;;;-1.15;67.01;100677.91;6253248;22;20030;-80
2023/05/08 00:31:46;;;;;;;0.70;0.70;;;;;;;-1.15;66.89;100683.22;6305813;22;20156;-81
2023/05/08 00:34:15;;;;;;;0.60;0.60;;;;;;;-1.20;67.18;100677.47;6279258;22;20084;-81
2023/05/08 00:36:43;;;;;;;0.80;0.80;;;;;;;-1.28;67.31;100677.28;6306047;22;20054;-81
2023/05/08 00:39:11;;;;;;;0.70;0.70;;;;;;;-1.26;67.54;100684.13;6278752;22;20023;-81
2023/05/08 00:41:38;;;;;;;0.90;0.90;;;;;;;-1.29;67.76;100686.16;6306024;22;20023;-81
2023/05/08 00:44:09;;;;;;;0.70;0.70;;;;;;;-1.25;67.70;100688.44;6305877;22;20029;-80
2023/05/08 00:46:40;;;;;;;0.68;0.68;;;;;;;-1.26;67.55;100691.22;6254594;22;20098;-80
2023/05/08 00:49:13;;;;;;;0.60;0.60;;;;;;;-1.31;67.50;100689.78;6306004;22;20023;-80
2023/05/08 00:51:42;;;;;;;0.80;0.80;;;;;;;-1.42;67.79;100673.97;6279503;22;20053;-80
2023/05/08 00:54:12;;;;;;;0.80;0.80;;;;;;;-1.32;67.85;100695.22;6278842;22;20023;-80
2023/05/08 00:56:39;;;;;;;0.75;0.75;;;;;;;-1.36;67.96;100694.63;6306355;22;20468;-80
2023/05/08 00:59:09;;;;;;;0.60;0.60;;;;;;;-1.40;68.24;100689.72;6305831;22;20669;-80
2023/05/08 01:01:39;;;;;;;0.80;0.80;;;;;;;-1.46;68.16;100698.16;6253715;22;20050;-81
2023/05/08 01:04:06;;;;;;;0.70;0.70;;;;;;;-1.65;68.82;100691.69;6253728;22;20076;-81
2023/05/08 01:06:35;;;;;;;0.60;0.60;;;;;;;-1.69;69.08;100702.69;6278780;22;20027;-81
2023/05/08 01:09:02;;;;;;;0.70;0.70;;;;;;;-1.80;69.36;100685.00;6305642;22;20053;-80
2023/05/08 01:11:44;;;;;;;0.50;0.50;;;;;;;-1.76;69.83;100702.34;6305942;22;20047;-80
2023/05/08 01:14:31;;;;;;;0.70;0.70;;;;;;;-1.80;69.72;100696.47;6278842;22;20361;-80
2023/05/08 01:17:13;;;;;;;0.70;0.70;;;;;;;-1.79;70.01;100700.78;6252929;22;20027;-80
2023/05/08 01:19:56;;;;;;;0.70;0.70;;;;;;;-1.84;70.01;100700.31;6278649;22;20097;-81
2023/05/08 01:23:07;;;;;;;0.85;0.85;;;;;;;-1.88;70.52;100700.66;6280468;22;20110;-80
2023/05/08 01:25:52;;;;;;;0.73;0.73;;;;;;;-1.99;70.51;100690.94;6255450;22;20470;-80
2023/05/08 01:28:50;;;;;;;0.80;0.80;;;;;;;-1.99;70.75;100701.53;6305396;22;20458;-79
2023/05/08 01:31:27;;;;;;;0.75;0.75;;;;;;;-2.09;71.11;100706.69;6277301;22;20486;-81
2023/05/08 01:34:01;;;;;;;0.50;0.50;;;;;;;-2.14;71.93;100714.16;6253611;22;20031;-80
2023/05/08 01:36:39;;;;;;;0.63;0.63;;;;;;;-2.25;72.44;100704.44;6277825;22;20019;-81
2023/05/08 01:39:17;;;;;;;0.60;0.60;;;;;;;-2.34;72.72;100697.22;6278277;22;20030;-80
2023/05/08 01:41:50;;;;;;;0.52;0.52;;;;;;;-2.33;72.97;100719.19;6277989;22;20027;-80
2023/05/08 01:44:20;;;;;;;0.68;0.68;;;;;;;-2.49;73.25;100695.75;6252807;22;20105;-80
2023/05/08 01:46:49;;;;;;;0.80;0.80;;;;;;;-2.29;73.24;100716.19;6278270;22;20358;-81
2023/05/08 01:49:29;;;;;;;0.80;0.80;;;;;;;-2.32;73.59;100708.50;6253021;22;20019;-80
2023/05/08 01:52:06;;;;;;;0.70;0.70;;;;;;;-2.34;73.65;100701.66;6248891;22;20024;-80
2023/05/08 01:54:38;;;;;;;0.50;0.50;;;;;;;-2.30;73.57;100709.25;6274952;22;20023;-80
2023/05/08 01:57:08;;;;;;;0.60;0.60;;;;;;;-2.26;73.70;100725.69;6272550;22;20428;-80
2023/05/08 01:59:35;;;;;;;0.50;0.50;;;;;;;-2.21;73.62;100729.66;6247862;22;20019;-81
2023/05/08 02:02:03;;;;;;;0.65;0.65;;;;;;;-2.19;73.89;100726.91;6247580;22;20026;-80
2023/05/08 02:04:35;;;;;;;0.50;0.50;;;;;;;-2.27;74.03;100718.75;6272861;22;20524;-81
2023/05/08 02:07:07;;;;;;;0.60;0.60;;;;;;;-2.22;74.18;100727.16;6274234;22;20030;-80
2023/05/08 02:09:37;;;;;;;0.60;0.60;;;;;;;-2.13;74.35;100720.28;6274408;22;20074;-80
2023/05/08 02:12:06;;;;;;;0.50;0.50;;;;;;;-2.04;74.48;100741.56;6273257;22;20050;-80
2023/05/08 02:14:33;;;;;;;0.50;0.50;;;;;;;-2.02;74.61;100736.19;6274308;22;20036;-80
2023/05/08 02:17:10;;;;;;;0.70;0.70;;;;;;;-1.99;74.40;100733.28;6272781;22;20051;-80
2023/05/08 02:19:38;;;;;;;0.80;0.80;;;;;;;-1.89;74.19;100743.97;6247420;22;20045;-80
2023/05/08 02:22:08;;;;;;;0.60;0.60;;;;;;;-1.86;74.19;100736.63;6247082;22;20024;-80
2023/05/08 02:24:36;;;;;;;0.77;0.77;;;;;;;-1.83;73.97;100731.09;6274572;22;20024;-79
2023/05/08 02:27:04;;;;;;;0.70;0.70;;;;;;;-1.75;73.81;100733.13;6247584;22;20024;-80
2023/05/08 02:29:31;;;;;;;0.80;0.80;;;;;;;-1.76;73.73;100736.75;6272614;22;20019;-80
2023/05/08 02:32:00;;;;;;;0.60;0.60;;;;;;;-1.65;73.52;100746.47;6247810;22;20041;-80
2023/05/08 02:34:27;;;;;;;0.63;0.63;;;;;;;-1.55;73.28;100752.69;6246892;22;20765;-80
2023/05/08 02:36:54;;;;;;;0.70;0.70;;;;;;;-1.47;73.14;100744.97;6272638;22;20028;-80
2023/05/08 02:39:24;;;;;;;0.50;0.50;;;;;;;-1.44;72.94;100743.88;6272495;22;20347;-80
2023/05/08 02:41:51;;;;;;;0.63;0.63;;;;;;;-1.33;72.71;100757.09;6272508;22;20088;-80
2023/05/08 02:44:19;;;;;;;0.63;0.63;;;;;;;-1.27;72.65;100753.13;6246610;22;20027;-80
2023/05/08 02:46:58;;;;;;;0.70;0.70;;;;;;;-1.24;72.60;100755.50;6272363;22;20020;-80
2023/05/08 02:49:34;;;;;;;0.90;0.90;;;;;;;-1.18;72.63;100755.03;6272065;22;20019;-80
2023/05/08 02:52:10;;;;;;;0.60;0.60;;;;;;;-1.13;72.39;100758.97;6247676;22;20023;-80
2023/05/08 02:54:44;;;;;;;0.82;0.82;;;;;;;-1.07;72.01;100756.78;6272364;22;20027;-80
2023/05/08 02:57:28;;;;;;;0.80;0.80;;;;;;;-0.98;72.21;100766.63;6272510;22;20070;-80
2023/05/08 03:00:07;;;;;;;0.50;0.50;;;;;;;-0.93;71.82;100767.94;6272479;22;20090;-80
2023/05/08 03:02:49;;;;;;;0.77;0.77;;;;;;;-0.82;71.42;100771.50;6247362;22;20030;-81
2023/05/08 03:05:19;;;;;;;0.70;0.70;;;;;;;-0.84;71.23;100755.69;6272179;22;20024;-80
2023/05/08 03:07:50;;;;;;;0.70;0.70;;;;;;;-0.66;70.85;100764.78;6272210;22;20054;-80
2023/05/08 03:10:18;;;;;;;0.70;0.70;;;;;;;-0.56;70.72;100774.59;6271975;22;20023;-80
2023/05/08 03:12:47;;;;;;;0.80;0.80;;;;;;;-0.47;70.38;100771.19;6273672;22;20024;-81
2023/05/08 03:15:16;;;;;;;0.77;0.77;;;;;;;-0.34;69.96;100776.28;6246915;22;20046;-80
2023/05/08 03:17:45;;;;;;;0.70;0.70;;;;;;;-0.22;69.71;100775.25;6272259;22;20051;-81
2023/05/08 03:20:16;;;;;;;0.80;0.80;;;;;;;-0.07;69.42;100773.09;6273255;22;20043;-79
2023/05/08 03:22:45;;;;;;;0.68;0.68;;;;;;;0.07;68.96;100772.72;6221636;22;20023;-79
2023/05/08 03:25:16;;;;;;;0.60;0.60;;;;;;;0.14;68.60;100773.03;6246608;22;20029;-80
2023/05/08 03:27:47;;;;;;;0.95;0.95;;;;;;;0.27;68.03;100776.28;6272072;22;20077;-79
2023/05/08 03:30:15;;;;;;;0.75;0.75;;;;;;;0.46;67.52;100777.31;6246708;22;20047;-80
2023/05/08 03:32:50;;;;;;;0.90;0.90;;;;;;;0.56;67.22;100776.38;6248117;22;20421;-80
2023/05/08 03:35:18;;;;;;;0.60;0.60;;;;;;;0.66;67.04;100773.75;6271619;22;20070;-80
2023/05/08 03:37:46;;;;;;;0.65;0.65;;;;;;;0.78;66.93;100774.44;6271993;22;20020;-80
2023/05/08 03:40:13;;;;;;;0.70;0.70;;;;;;;0.95;66.71;100779.09;6196444;22;20054;-79
2023/05/08 03:42:42;;;;;;;0.70;0.70;;;;;;;1.14;66.69;100791.56;6271749;22;20043;-80
2023/05/08 03:45:10;;;;;;;0.80;0.80;;;;;;;1.28;66.06;100788.47;6271568;22;20060;-80
2023/05/08 03:47:37;;;;;;;0.80;0.80;;;;;;;1.48;64.84;100786.63;6221910;22;20073;-79
2023/05/08 03:50:07;;;;;;;0.77;0.77;;;;;;;1.66;63.85;100794.72;6271968;22;20028;-79
2023/05/08 03:52:34;;;;;;;0.82;0.82;;;;;;;1.82;62.84;100785.31;6273188;22;20080;-80
2023/05/08 03:55:02;;;;;;;1.00;1.00;;;;;;;2.01;62.48;100795.06;6273578;22;20027;-80
2023/05/08 03:57:35;;;;;;;0.80;0.80;;;;;;;2.11;61.87;100799.38;6272872;22;20024;-81
2023/05/08 04:00:08;;;;;;;0.80;0.80;;;;;;;2.25;61.32;100794.53;6272180;22;20069;-81
2023/05/08 04:03:21;;;;;;;0.90;0.90;;;;;;;2.50;60.57;100801.84;6202232;22;20393;-80
2023/05/08 04:06:00;;;;;;;0.80;0.80;;;;;;;2.65;58.43;100796.03;6231904;22;20050;-80
2023/05/08 04:08:29;;;;;;;0.80;0.80;;;;;;;2.76;57.52;100786.00;6221350;22;20023;-81
2023/05/08 04:11:25;;;;;;;0.70;0.70;;;;;;;2.91;57.78;100788.13;6246829;22;20028;-80
2023/05/08 04:13:57;;;;;;;0.77;0.77;;;;;;;3.07;57.14;100799.00;6246888;22;20077;-80
2023/05/08 04:16:31;;;;;;;0.88;0.88;;;;;;;3.20;56.20;100793.28;6246927;22;20085;-80
2023/05/08 04:19:01;;;;;;;0.77;0.77;;;;;;;3.31;55.62;100793.03;6246494;22;20098;-81
2023/05/08 04:21:33;;;;;;;0.90;0.90;;;;;;;3.35;55.20;100780.22;6271944;22;20050;-81
2023/05/08 04:24:02;;;;;;;0.80;0.80;;;;;;;3.55;55.21;100797.75;6246477;22;20119;-81
2023/05/08 04:26:32;;;;;;;0.80;0.80;;;;;;;3.62;54.96;100792.59;6222659;22;20339;-83
2023/05/08 04:29:01;;;;;;;0.70;0.70;;;;;;;3.85;54.70;100795.63;6274046;22;20520;-81
2023/05/08 04:31:29;;;;;;;1.00;1.00;;;;;;;3.99;54.29;100804.88;6244894;22;20024;-82
2023/05/08 04:33:57;;;;;;;0.80;0.80;;;;;;;4.17;54.36;100799.47;6246102;22;20023;-81
2023/05/08 04:36:28;;;;;;;0.90;0.90;;;;;;;4.23;53.64;100793.47;6270623;22;20081;-81
2023/05/08 04:38:56;;;;;;;0.77;0.77;;;;;;;4.36;52.99;100790.38;6271399;22;20081;-81
2023/05/08 04:41:26;;;;;;;0.80;0.80;;;;;;;4.39;52.32;100782.03;6271231;22;20024;-82
2023/05/08 04:43:56;;;;;;;0.88;0.88;;;;;;;4.58;52.02;100795.13;6270448;22;20030;-81
2023/05/08 04:46:24;;;;;;;0.80;0.80;;;;;;;4.62;51.44;100783.13;6270903;22;20020;-81
2023/05/08 04:48:51;;;;;;;0.80;0.80;;;;;;;4.81;51.00;100787.38;6220987;22;20047;-81
2023/05/08 04:51:18;;;;;;;0.90;0.90;;;;;;;4.84;50.51;100778.19;6270841;22;20455;-81
2023/05/08 04:53:54;;;;;;;0.80;0.80;;;;;;;5.02;50.00;100786.06;6270957;22;20055;-81
2023/05/08 04:56:22;;;;;;;0.80;0.80;;;;;;;5.12;49.49;100792.94;6275006;22;20043;-81
2023/05/08 04:58:50;;;;;;;0.80;0.80;;;;;;;5.20;49.15;100792.09;6273868;22;20024;-81
2023/05/08 05:01:17;;;;;;;0.80;0.80;;;;;;;5.15;48.92;100776.53;6245999;22;20065;-81
2023/05/08 05:03:44;;;;;;;0.80;0.80;;;;;;;5.32;48.47;100787.28;6270784;22;20035;-81
2023/05/08 05:06:17;;;;;;;0.70;0.70;;;;;;;5.47;49.00;100799.00;6272126;22;20024;-81
2023/05/08 05:08:44;;;;;;;0.70;0.70;;;;;;;5.71;48.43;100797.28;6273464;22;20462;-81
2023/05/08 05:11:11;;;;;;;0.70;0.70;;;;;;;5.84;47.80;100800.28;6246904;22;20020;-80
2023/05/08 05:13:39;;;;;;;0.70;0.70;;;;;;;5.85;46.60;100793.94;6272520;22;20122;-81
2023/05/08 05:16:06;;;;;;;0.80;0.80;;;;;;;5.85;46.65;100794.78;6274855;22;20102;-81
2023/05/08 05:18:34;;;;;;;0.75;0.75;;;;;;;5.92;46.29;100816.34;6275559;22;20078;-82
2023/05/08 05:21:01;;;;;;;0.70;0.70;;;;;;;5.95;45.81;100807.16;6273649;22;20069;-82
2023/05/08 05:23:28;;;;;;;0.73;0.73;;;;;;;6.11;44.87;100795.59;6274157;22;20024;-81
2023/05/08 05:25:56;;;;;;;0.80;0.80;;;;;;;6.24;45.03;100803.91;6274212;22;20023;-83
2023/05/08 05:28:26;;;;;;;0.77;0.77;;;;;;;6.37;44.37;100814.09;6273080;22;20382;-82
2023/05/08 05:30:53;;;;;;;0.80;0.80;;;;;;;6.23;43.79;100807.63;6274397;22;20024;-81
2023/05/08 05:33:20;;;;;;;0.60;0.60;;;;;;;6.24;43.88;100806.59;6272670;22;20046;-81
2023/05/08 05:35:48;;;;;;;0.70;0.70;;;;;;;6.27;44.35;100798.22;6274084;22;20023;-81
2023/05/08 05:38:16;;;;;;;0.70;0.70;;;;;;;6.45;44.15;100822.94;6271476;22;20023;-81
2023/05/08 05:40:43;;;;;;;0.90;0.90;;;;;;;6.27;43.49;100792.84;6271526;22;20546;-81
2023/05/08 05:43:10;;;;;;;0.70;0.70;;;;;;;6.24;43.41;100796.72;6242115;22;20034;-80
2023/05/08 05:45:38;;;;;;;0.75;0.75;;;;;;;6.52;43.73;100815.03;6267129;22;20030;-78
2023/05/08 05:48:08;;;;;;;0.80;0.80;;;;;;;6.77;43.44;100814.94;6244498;22;20390;-80
2023/05/08 05:50:36;;;;;;;0.60;0.60;;;;;;;6.84;42.80;100816.75;6268547;22;20027;-80
2023/05/08 05:53:04;;;;;;;0.70;0.70;;;;;;;6.80;41.96;100815.41;6245863;22;20027;-81
2023/05/08 05:55:31;;;;;;;0.80;0.80;;;;;;;6.76;41.48;100803.38;6273191;22;20027;-81
2023/05/08 05:58:00;;;;;;;0.80;0.80;;;;;;;6.69;41.41;100789.81;6272793;22;20454;-81
2023/05/08 06:00:27;;;;;;;0.70;0.70;;;;;;;6.83;41.06;100814.22;6273662;22;20024;-80
2023/05/08 06:02:56;;;;;;;0.70;0.70;;;;;;;6.91;41.61;100811.50;6246629;22;20027;-79
2023/05/08 06:05:27;;;;;;;0.70;0.70;;;;;;;6.87;41.74;100800.28;6273748;22;20024;-78
2023/05/08 06:07:54;;;;;;;0.68;0.68;;;;;;;6.94;40.37;100811.16;6272577;22;20016;-79
2023/05/08 06:10:23;;;;;;;0.80;0.80;;;;;;;6.98;40.58;100807.09;6271704;22;20332;-81
2023/05/08 06:12:52;;;;;;;0.70;0.70;;;;;;;7.34;40.32;100819.94;6271327;22;20031;-81
2023/05/08 06:15:23;;;;;;;0.80;0.80;;;;;;;7.27;39.38;100811.78;6271341;22;20034;-80
2023/05/08 06:17:53;;;;;;;0.70;0.70;;;;;;;7.41;40.37;100812.03;6246378;22;20020;-80
2023/05/08 06:20:22;;;;;;;0.70;0.70;;;;;;;7.75;38.92;100825.03;6270052;22;20023;-80
2023/05/08 06:22:52;;;;;;;0.80;0.80;;;;;;;7.70;38.69;100800.53;6274117;22;20423;-79
2023/05/08 06:25:21;;;;;;;0.73;0.73;;;;;;;7.96;39.01;100821.63;6273443;22;20023;-80
2023/05/08 06:27:48;;;;;;;0.80;0.80;;;;;;;8.11;39.33;100817.09;6273912;22;20023;-79
2023/05/08 06:30:15;;;;;;;0.70;0.70;;;;;;;8.31;38.62;100816.56;6273760;22;20031;-80
2023/05/08 06:32:43;;;;;;;0.80;0.80;;;;;;;8.31;38.73;100820.06;6274398;22;20102;-80
2023/05/08 06:35:10;;;;;;;0.80;0.80;;;;;;;8.22;38.61;100802.34;6273514;22;20059;-81
2023/05/08 06:37:38;;;;;;;0.80;0.80;;;;;;;8.42;38.37;100816.13;6272590;22;20071;-80
2023/05/08 06:40:06;;;;;;;0.70;0.70;;;;;;;8.49;37.69;100816.22;6273803;22;20054;-80
2023/05/08 06:42:43;;;;;;;0.80;0.80;;;;;;;8.62;37.40;100814.50;6272688;22;20019;-80
2023/05/08 06:45:11;;;;;;;0.70;0.70;;;;;;;8.60;37.50;100807.66;6274115;22;20015;-81
2023/05/08 06:47:39;;;;;;;0.77;0.77;;;;;;;8.55;36.63;100816.28;6273313;22;20324;-80
2023/05/08 06:50:07;;;;;;;0.70;0.70;;;;;;;8.65;36.97;100803.38;6273897;22;20305;-80
2023/05/08 06:52:37;;;;;;;0.75;0.75;;;;;;;8.67;36.51;100795.13;6272116;22;20019;-80
2023/05/08 06:55:04;;;;;;;0.70;0.70;;;;;;;8.86;36.41;100807.13;6273558;22;20114;-80
2023/05/08 06:57:32;;;;;;;0.70;0.70;;;;;;;9.13;36.32;100805.56;6271868;22;20023;-80
2023/05/08 07:00:02;;;;;;;0.70;0.70;;;;;;;9.25;36.07;100795.13;6273359;22;20020;-80
2023/05/08 07:02:34;;;;;;;0.70;0.70;;;;;;;9.46;35.74;100803.19;6247762;22;20106;-80
2023/05/08 07:05:04;;;;;;;0.70;0.70;;;;;;;9.63;35.54;100792.16;6273250;22;20023;-80
2023/05/08 07:07:32;;;;;;;0.80;0.80;;;;;;;9.80;35.65;100798.94;6271753;22;20049;-81
2023/05/08 07:09:59;;;;;;;0.65;0.65;;;;;;;9.95;35.63;100801.53;6273259;22;20485;-80
2023/05/08 07:12:26;;;;;;;0.80;0.80;;;;;;;10.05;35.30;100787.69;6271474;22;20030;-81
2023/05/08 07:14:53;;;;;;;0.80;0.80;;;;;;;10.28;34.97;100799.09;6274638;22;20023;-81
2023/05/08 07:17:23;;;;;;;0.70;0.70;;;;;;;10.28;34.23;100790.13;6272954;22;20098;-81
2023/05/08 07:20:08;;;;;;;0.70;0.70;;;;;;;10.39;34.17;100787.72;6273153;22;20130;-80
2023/05/08 07:22:36;;;;;;;0.70;0.70;;;;;;;10.41;33.59;100788.38;6272258;22;20027;-81
2023/05/08 07:25:03;;;;;;;0.75;0.75;;;;;;;10.72;33.35;100795.16;6274125;22;20098;-81
2023/05/08 07:27:31;;;;;;;0.60;0.60;;;;;;;10.72;32.75;100792.44;6275039;22;20027;-80
2023/05/08 07:30:03;;;;;;;0.70;0.70;;;;;;;10.52;32.83;100796.94;6274271;22;20024;-81
2023/05/08 07:32:52;;;;;;;0.80;0.80;;;;;;;10.49;33.02;100791.94;6276130;22;20111;-81
2023/05/08 07:35:19;;;;;;;0.80;0.80;;;;;;;10.91;32.20;100784.59;6275422;22;20027;-81
2023/05/08 07:38:07;;;;;;;0.80;0.80;;;;;;;11.45;31.07;100789.91;6272894;22;20024;-81
2023/05/08 07:40:35;;;;;;;0.90;0.90;;;;;;;11.87;30.71;100792.44;6272122;22;20316;-81
2023/05/08 07:43:02;;;;;;;0.90;0.90;;;;;;;11.88;30.19;100765.19;6272411;22;20019;-81
2023/05/08 07:45:29;;;;;;;0.80;0.80;;;;;;;12.00;30.02;100778.06;6271675;22;20020;-79
2023/05/08 07:47:58;;;;;;;0.90;0.90;;;;;;;12.20;29.87;100775.31;6271807;22;20023;-81
2023/05/08 07:50:25;;;;;;;0.80;0.80;;;;;;;12.34;28.70;100785.06;6275253;22;20023;-80
2023/05/08 07:53:16;;;;;;;0.90;0.90;;;;;;;12.31;28.45;100782.81;6277633;22;20031;-81
2023/05/08 07:55:44;;;;;;;0.90;0.90;;;;;;;12.49;28.61;100774.00;6252637;22;20027;-81
2023/05/08 07:58:14;;;;;;;0.80;0.80;;;;;;;12.63;28.92;100774.75;6304706;22;20023;-81
2023/05/08 08:00:41;;;;;;;0.88;0.88;;;;;;;12.67;29.17;100763.28;6278344;22;20019;-81
2023/05/08 08:03:11;;;;;;;0.80;0.80;;;;;;;12.94;28.32;100777.53;6307527;22;20023;-81
2023/05/08 08:05:38;;;;;;;0.90;0.90;;;;;;;13.41;28.22;100778.09;6279365;22;20030;-81
2023/05/08 08:08:05;;;;;;;0.90;0.90;;;;;;;13.63;27.86;100775.84;6304659;22;20027;-81
2023/05/08 08:10:33;;;;;;;0.60;0.60;;;;;;;13.37;27.66;100763.31;6304456;22;20024;-83
2023/05/08 08:13:00;;;;;;;0.60;0.60;;;;;;;12.54;28.35;100764.16;6251391;22;20019;-80
2023/05/08 08:15:30;;;;;;;0.60;0.60;;;;;;;11.92;29.06;100768.28;6277514;22;20404;-81
2023/05/08 08:18:16;;;;;;;0.95;0.95;;;;;;;11.95;29.47;100775.16;6251420;22;20073;-81
2023/05/08 08:20:46;;;;;;;1.00;1.00;;;;;;;12.88;28.50;100764.84;6304353;22;20027;-81
2023/05/08 08:23:32;;;;;;;0.90;0.90;;;;;;;13.85;27.74;100779.00;6303546;22;20025;-81
2023/05/08 08:25:59;;;;;;;0.90;0.90;;;;;;;14.14;26.98;100757.59;6304001;22;20019;-80
2023/05/08 08:28:26;;;;;;;0.60;0.60;;;;;;;14.22;26.55;100762.72;6276869;22;20397;-81
2023/05/08 08:30:54;;;;;;;0.90;0.90;;;;;;;13.86;26.63;100768.97;6277563;22;20023;-82
2023/05/08 08:33:39;;;;;;;0.50;0.50;;;;;;;13.78;26.59;100755.69;6252703;22;20023;-81
2023/05/08 08:36:31;;;;;;;0.90;0.90;;;;;;;13.37;27.45;100746.22;6277781;22;20046;-82
2023/05/08 08:39:01;;;;;;;0.50;0.50;;;;;;;13.44;26.28;100753.25;6277895;22;20034;-81
2023/05/08 08:41:28;;;;;;;0.50;0.50;;;;;;;12.05;27.46;100748.50;6278427;22;20101;-82
2023/05/08 08:43:55;;;;;;;0.60;0.60;;;;;;;11.13;28.77;100767.19;6279622;22;20030;-81
2023/05/08 08:46:26;;;;;;;0.60;0.60;;;;;;;10.93;29.88;100747.41;6306022;22;20034;-81
2023/05/08 08:48:55;;;;;;;0.60;0.60;;;;;;;10.91;30.36;100755.72;6253446;22;20027;-80
2023/05/08 08:51:27;;;;;;;0.57;0.57;;;;;;;10.78;30.44;100759.22;6305161;22;20027;-81
2023/05/08 08:54:19;;;;;;;0.60;0.60;;;;;;;10.92;30.45;100760.09;6305847;22;20023;-81
2023/05/08 08:56:48;;;;;;;0.60;0.60;;;;;;;10.54;29.79;100763.28;6278160;22;20706;-80
2023/05/08 08:59:17;;;;;;;0.60;0.60;;;;;;;10.37;30.16;100752.00;6305488;22;20037;-82
2023/05/08 09:04:58;;;;;;;0.60;0.60;;;;;;;10.29;29.89;100762.13;6288052;22;20034;-81
2023/05/08 09:07:25;;;;;;;0.60;0.60;;;;;;;10.39;29.79;100752.63;6305508;22;20084;-81
2023/05/08 09:09:53;;;;;;;0.70;0.70;;;;;;;10.35;29.76;100766.72;6253437;22;20028;-81
2023/05/08 09:12:21;;;;;;;0.70;0.70;;;;;;;10.84;30.40;100758.41;6278775;22;20024;-81
2023/05/08 09:14:49;;;;;;;0.70;0.70;;;;;;;11.33;29.64;100761.81;6278761;22;20023;-81
2023/05/08 09:17:35;;;;;;;0.70;0.70;;;;;;;11.55;28.89;100759.78;6253763;22;20023;-81
2023/05/08 09:20:03;;;;;;;0.60;0.60;;;;;;;11.73;28.41;100766.41;6253747;22;20418;-82
2023/05/08 09:22:31;;;;;;;0.60;0.60;;;;;;;12.03;28.49;100769.53;6306489;22;20023;-80
2023/05/08 09:25:01;;;;;;;0.60;0.60;;;;;;;12.10;27.75;100754.94;6253332;22;20019;-82
2023/05/08 09:27:30;;;;;;;0.65;0.65;;;;;;;12.20;27.79;100772.59;6279492;22;20019;-81
2023/05/08 09:30:08;;;;;;;0.70;0.70;;;;;;;12.08;27.94;100765.16;6305574;22;20024;-80
2023/05/08 09:32:40;;;;;;;0.60;0.60;;;;;;;11.85;28.66;100748.50;6306062;22;20046;-81
2023/05/08 09:35:09;;;;;;;0.60;0.60;;;;;;;12.02;28.14;100751.63;6305496;22;20038;-81
2023/05/08 09:37:38;;;;;;;0.63;0.63;;;;;;;12.11;28.64;100747.66;6278568;22;20028;-81
2023/05/08 09:40:17;;;;;;;0.60;0.60;;;;;;;12.31;28.14;100753.03;6305781;22;20023;-81
2023/05/08 09:42:51;;;;;;;0.60;0.60;;;;;;;12.18;27.03;100748.47;6305412;22;20023;-81
2023/05/08 09:45:29;;;;;;;0.60;0.60;;;;;;;11.84;26.48;100749.53;6304880;22;20023;-80
2023/05/08 09:47:57;;;;;;;0.70;0.70;;;;;;;11.91;27.35;100748.53;6305389;22;20399;-81
2023/05/08 09:50:26;;;;;;;0.88;0.88;;;;;;;12.60;26.83;100737.28;6304983;22;20026;-81
2023/05/08 09:52:54;;;;;;;0.70;0.70;;;;;;;13.66;25.80;100734.69;6304849;22;20022;-80
2023/05/08 09:55:25;;;;;;;1.17;1.17;;;;;;;16.02;23.94;100741.94;6305116;22;20019;-81
2023/05/08 09:57:55;;;;;;;0.80;0.80;;;;;;;18.08;22.20;100713.72;6304974;22;20107;-80
2023/05/08 10:00:27;;;;;;;0.90;0.90;;;;;;;17.71;21.45;100717.84;6252661;22;20019;-81
2023/05/08 10:03:02;;;;;;;0.50;0.50;;;;;;;16.12;22.84;100730.44;6305199;22;20025;-82
2023/05/08 10:05:31;;;;;;;0.50;0.50;;;;;;;15.02;24.66;100723.72;6305260;22;20077;-81
2023/05/08 10:08:20;;;;;;;0.50;0.50;;;;;;;14.04;24.95;100730.97;6305389;22;20268;-81
2023/05/08 10:10:49;;;;;;;0.50;0.50;;;;;;;12.99;26.60;100728.94;6278783;22;20015;-80
2023/05/08 10:13:16;;;;;;;0.50;0.50;;;;;;;12.92;27.43;100732.72;6227243;22;20029;-81
2023/05/08 10:15:53;;;;;;;0.50;0.50;;;;;;;12.46;27.18;100728.41;6306596;22;20042;-81
2023/05/08 10:18:23;;;;;;;0.50;0.50;;;;;;;12.19;27.48;100738.47;6279825;22;20753;-81
2023/05/08 10:20:51;;;;;;;0.50;0.50;;;;;;;12.06;27.59;100739.34;6278901;22;20019;-81
2023/05/08 10:23:18;;;;;;;0.50;0.50;;;;;;;11.74;27.98;100736.44;6305623;22;20029;-82
2023/05/08 10:25:47;;;;;;;0.50;0.50;;;;;;;11.36;28.74;100734.38;6278767;22;20027;-82
2023/05/08 10:28:50;;;;;;;0.60;0.60;;;;;;;11.15;29.01;100748.91;6278058;22;20023;-81
2023/05/08 10:31:17;;;;;;;0.60;0.60;;;;;;;10.96;29.06;100736.19;6277887;22;20417;-81
2023/05/08 10:33:48;;;;;;;0.60;0.60;;;;;;;11.20;29.03;100745.59;6277570;22;20114;-82
2023/05/08 10:36:17;;;;;;;0.60;0.60;;;;;;;11.42;28.61;100735.41;6252550;22;20023;-80
2023/05/08 10:38:45;;;;;;;0.60;0.60;;;;;;;11.49;28.94;100729.00;6305676;22;20023;-81
2023/05/08 10:41:12;;;;;;;0.63;0.63;;;;;;;11.63;28.14;100724.41;6280258;22;20393;-80
2023/05/08 10:43:42;;;;;;;0.70;0.70;;;;;;;11.76;28.37;100737.06;6307642;22;20019;-80
2023/05/08 10:46:41;;;;;;;0.80;0.80;;;;;;;12.07;28.09;100739.13;6278497;22;20362;-81
2023/05/08 10:49:20;;;;;;;0.90;0.90;;;;;;;13.25;26.51;100737.09;6252524;22;20106;-80
2023/05/08 10:52:11;;;;;;;1.00;1.00;;;;;;;15.89;25.02;100725.84;6254109;22;20415;-81
2023/05/08 10:55:03;;;;;;;1.40;1.30;;;;;;;17.67;22.18;100721.31;6306359;22;20023;-80
2023/05/08 10:57:31;;;;;;;1.10;1.10;;;;;;;18.68;21.13;100718.31;6255440;22;20533;-82
2023/05/08 11:00:03;;;;;;;1.10;1.10;;;;;;;19.76;20.13;100719.31;6279782;22;20018;-82
2023/05/08 11:02:37;;;;;;;0.70;0.70;;;;;;;19.55;19.72;100704.63;6278901;22;20046;-82
2023/05/08 11:05:17;;;;;;;0.60;0.60;;;;;;;18.06;21.15;100705.81;6284031;22;20363;-81
2023/05/08 11:08:00;;;;;;;0.50;0.50;;;;;;;16.88;22.54;100703.09;6306928;22;20022;-82
2023/05/08 11:10:31;;;;;;;0.50;0.50;;;;;;;14.98;23.56;100713.53;6286975;22;20019;-80
2023/05/08 11:12:58;;;;;;;0.60;0.60;;;;;;;14.00;24.60;100716.22;6315020;22;20047;-80
2023/05/08 11:15:39;;;;;;;0.60;0.60;;;;;;;14.25;24.44;100699.81;6308126;22;20140;-80
2023/05/08 11:18:13;;;;;;;0.60;0.60;;;;;;;14.10;24.42;100702.09;6254880;22;20023;-81
2023/05/08 11:20:53;;;;;;;0.50;0.50;;;;;;;14.63;24.51;100698.72;6278012;22;20019;-81
2023/05/08 11:23:28;;;;;;;0.70;0.70;;;;;;;14.99;24.49;100694.28;6277350;22;20030;-81
2023/05/08 11:26:15;;;;;;;0.60;0.60;;;;;;;15.30;24.60;100700.47;6277669;22;20450;-82
2023/05/08 11:28:57;;;;;;;0.60;0.60;;;;;;;15.39;23.74;100699.91;6304482;22;20358;-81
2023/05/08 11:31:53;;;;;;;0.60;0.60;;;;;;;14.91;23.98;100702.75;6276713;22;20019;-81
2023/05/08 11:34:43;;;;;;;0.63;0.63;;;;;;;14.69;24.74;100697.00;6271573;22;20026;-80
2023/05/08 11:37:11;;;;;;;0.60;0.60;;;;;;;14.81;24.82;100699.75;6303308;22;20033;-81
2023/05/08 11:39:38;;;;;;;0.60;0.60;;;;;;;14.61;24.71;100698.16;6251676;22;20093;-80
2023/05/08 11:42:24;;;;;;;0.50;0.50;;;;;;;14.18;24.62;100696.38;6304496;22;20476;-81
2023/05/08 11:45:20;;;;;;;0.50;0.50;;;;;;;13.57;25.74;100702.63;6277525;22;20019;-80
2023/05/08 11:47:47;;;;;;;0.50;0.50;;;;;;;13.19;26.25;100701.69;6179343;23;20067;-81
2023/05/08 11:50:14;;;;;;;0.43;0.43;;;;;;;12.84;26.43;100693.19;6179071;23;20029;-80
2023/05/08 11:52:42;;;;;;;0.50;0.50;;;;;;;12.55;26.62;100710.84;6154765;23;20125;-82